Time;durP1;ratioP1;P1;durP2;ratioP2;P2;SDS_P1;SDS_P2;PMS_P1;PMS_P2;Temp;Humidity;BMP_temperature;BMP_pressure;BME280_temperature;BME280_humidity;BME280_pressure;Samples;Min_cycle;Max_cycle;Signal;HPM_P1;HPM_P2
2022/01/02 00:00:19;;;;;;;4.38;2.92;;;13.20;99.90;;;;;;5092221;28;20020;-85
2022/01/02 00:03:01;;;;;;;5.65;3.25;;;13.10;99.90;;;;;;5081468;28;20035;-85
2022/01/02 00:05:30;;;;;;;4.93;3.40;;;13.20;99.90;;;;;;5082281;28;20052;-84
2022/01/02 00:08:07;;;;;;;5.45;3.28;;;13.30;99.90;;;;;;5080008;28;20350;-84
2022/01/02 00:10:45;;;;;;;5.32;3.65;;;13.20;99.90;;;;;;5080691;28;20052;-85
2022/01/02 00:13:18;;;;;;;5.93;3.50;;;13.20;99.90;;;;;;5073700;28;20143;-84
2022/01/02 00:15:44;;;;;;;5.05;2.80;;;13.20;99.90;;;;;;5081308;28;20027;-84
2022/01/02 00:18:13;;;;;;;7.82;3.25;;;13.20;99.90;;;;;;5079984;28;20028;-84
2022/01/02 00:20:48;;;;;;;5.20;3.25;;;13.20;99.90;;;;;;5072134;28;20029;-84
2022/01/02 00:23:21;;;;;;;5.75;3.28;;;13.30;99.90;;;;;;5071889;28;20044;-84
2022/01/02 00:25:53;;;;;;;5.53;3.70;;;13.30;99.90;;;;;;5072050;28;20029;-84
2022/01/02 00:28:19;;;;;;;6.60;3.38;;;13.20;99.90;;;;;;5071333;28;20087;-84
2022/01/02 00:30:48;;;;;;;6.88;3.20;;;13.20;99.90;;;;;;5076111;28;20027;-84
2022/01/02 00:33:14;;;;;;;6.20;3.00;;;13.10;99.90;;;;;;5082221;28;20032;-84
2022/01/02 00:35:40;;;;;;;6.55;3.88;;;13.20;99.90;;;;;;5092104;28;20059;-84
2022/01/02 00:38:06;;;;;;;4.53;3.22;;;13.20;99.90;;;;;;5091698;28;20056;-84
2022/01/02 00:40:38;;;;;;;5.20;3.75;;;13.20;99.90;;;;;;5090720;28;20540;-84
2022/01/02 00:43:04;;;;;;;7.85;3.90;;;13.20;99.90;;;;;;5091792;28;20464;-80
2022/01/02 00:45:40;;;;;;;5.40;3.25;;;13.30;99.90;;;;;;5089979;28;20017;-84
2022/01/02 00:48:19;;;;;;;5.80;3.67;;;13.30;99.90;;;;;;5091191;28;20123;-83
2022/01/02 00:51:00;;;;;;;5.55;3.88;;;13.30;99.90;;;;;;5091383;28;20069;-84
2022/01/02 00:53:36;;;;;;;6.28;3.15;;;13.30;99.90;;;;;;5082955;28;20431;-84
2022/01/02 00:56:04;;;;;;;4.40;3.15;;;13.30;99.90;;;;;;5078838;28;20089;-84
2022/01/02 00:58:55;;;;;;;7.60;3.80;;;13.30;99.90;;;;;;5090208;28;20430;-84
2022/01/02 01:01:27;;;;;;;6.82;3.88;;;13.40;99.90;;;;;;5091509;28;20036;-83
2022/01/02 01:03:54;;;;;;;6.53;4.07;;;13.30;99.90;;;;;;5091390;28;20027;-81
2022/01/02 01:06:24;;;;;;;7.30;4.45;;;13.30;99.90;;;;;;5081391;28;20025;-81
2022/01/02 01:08:55;;;;;;;11.85;4.75;;;13.30;99.90;;;;;;5071448;28;20021;-81
2022/01/02 01:11:26;;;;;;;5.88;3.80;;;13.40;99.90;;;;;;5071353;28;20549;-82
2022/01/02 01:13:56;;;;;;;8.95;3.90;;;13.30;99.90;;;;;;5071500;28;20674;-84
2022/01/02 01:16:22;;;;;;;7.97;4.40;;;13.40;99.90;;;;;;5077503;28;20143;-83
2022/01/02 01:18:48;;;;;;;11.32;4.28;;;13.40;99.90;;;;;;5078918;28;20138;-82
2022/01/02 01:21:15;;;;;;;8.82;4.47;;;13.40;99.90;;;;;;5071301;28;20025;-83
2022/01/02 01:23:41;;;;;;;6.00;3.72;;;13.40;99.90;;;;;;5071149;28;20518;-83
2022/01/02 01:26:10;;;;;;;6.80;4.25;;;13.50;99.90;;;;;;5074729;28;20256;-81
2022/01/02 01:28:36;;;;;;;7.10;4.13;;;13.40;99.90;;;;;;5084318;28;20427;-82
2022/01/02 01:31:02;;;;;;;9.25;4.40;;;13.40;99.90;;;;;;5094245;28;20048;-82
2022/01/02 01:33:28;;;;;;;8.88;4.85;;;13.40;99.90;;;;;;5095422;28;20081;-83
2022/01/02 01:35:54;;;;;;;8.88;5.55;;;13.30;99.90;;;;;;5095247;28;20020;-82
2022/01/02 01:38:19;;;;;;;11.32;4.65;;;13.40;99.90;;;;;;5093788;28;20020;-81
2022/01/02 01:41:11;;;;;;;10.82;4.75;;;13.30;99.90;;;;;;5091654;28;20028;-81
2022/01/02 01:43:40;;;;;;;9.15;4.93;;;13.40;99.90;;;;;;5073414;28;20013;-79
2022/01/02 01:46:06;;;;;;;9.32;4.88;;;13.40;99.90;;;;;;5072865;28;20107;-79
2022/01/02 01:48:32;;;;;;;9.40;5.15;;;13.40;99.90;;;;;;5074604;28;20025;-79
2022/01/02 01:50:58;;;;;;;11.85;5.38;;;13.40;99.90;;;;;;5074488;28;20055;-79
2022/01/02 01:53:24;;;;;;;10.85;5.30;;;13.40;99.90;;;;;;5074606;28;20033;-80
2022/01/02 01:55:50;;;;;;;10.13;5.28;;;13.30;99.90;;;;;;5080107;28;20028;-82
2022/01/02 01:58:16;;;;;;;9.63;5.20;;;13.30;99.90;;;;;;5094232;28;20027;-81
2022/01/02 02:00:42;;;;;;;10.98;5.82;;;13.30;99.90;;;;;;5093395;28;20059;-80
2022/01/02 02:03:08;;;;;;;11.90;5.47;;;13.30;99.90;;;;;;5094911;28;20031;-79
2022/01/02 02:05:34;;;;;;;9.13;5.28;;;13.30;99.90;;;;;;5094661;28;20028;-80
2022/01/02 02:08:00;;;;;;;10.95;5.50;;;13.30;99.90;;;;;;5094804;28;20016;-79
2022/01/02 02:10:40;;;;;;;10.63;5.85;;;13.30;99.90;;;;;;5094131;28;20476;-79
2022/01/02 02:13:06;;;;;;;12.52;5.07;;;13.30;99.90;;;;;;5074477;28;20040;-79
2022/01/02 02:15:32;;;;;;;12.27;5.15;;;13.20;99.90;;;;;;5074151;28;20029;-79
2022/01/02 02:17:58;;;;;;;8.23;5.38;;;13.20;99.90;;;;;;5074439;28;20060;-79
2022/01/02 02:20:27;;;;;;;9.48;5.35;;;13.20;99.90;;;;;;5074325;28;20106;-80
2022/01/02 02:22:55;;;;;;;11.75;4.82;;;13.20;99.90;;;;;;5072952;28;20027;-80
2022/01/02 02:25:25;;;;;;;10.43;5.38;;;13.20;99.90;;;;;;5074274;28;20419;-80
2022/01/02 02:28:00;;;;;;;16.42;5.80;;;13.20;99.90;;;;;;5073157;28;20074;-80
2022/01/02 02:30:28;;;;;;;13.18;5.82;;;13.20;99.90;;;;;;5073549;28;20016;-81
2022/01/02 02:32:56;;;;;;;12.90;4.95;;;13.10;99.90;;;;;;5073084;28;20052;-82
2022/01/02 02:35:22;;;;;;;11.27;5.60;;;13.10;99.90;;;;;;5073430;28;20013;-82
2022/01/02 02:37:48;;;;;;;12.93;5.78;;;13.10;99.90;;;;;;5073221;28;20106;-82
2022/01/02 02:40:17;;;;;;;9.95;5.05;;;13.10;99.90;;;;;;5073762;28;20059;-82
2022/01/02 02:42:55;;;;;;;12.80;5.22;;;13.20;99.90;;;;;;5074728;28;20024;-82
2022/01/02 02:51:03;;;;;;;8.88;4.88;;;13.20;99.90;;;;;;5079817;28;20201;-80
2022/01/02 02:53:30;;;;;;;10.27;5.18;;;13.10;99.90;;;;;;5093978;28;20016;-80
2022/01/02 02:55:58;;;;;;;10.55;4.85;;;13.10;99.90;;;;;;5092625;28;20016;-80
2022/01/02 03:01:00;;;;;;;13.40;5.03;;;13.10;99.90;;;;;;5080849;28;20030;-83
2022/01/02 03:03:25;;;;;;;10.70;4.63;;;13.10;99.90;;;;;;5092517;28;20059;-80
2022/01/02 03:05:51;;;;;;;11.60;5.88;;;13.00;99.90;;;;;;5093047;28;20096;-81
2022/01/02 03:08:17;;;;;;;10.00;5.57;;;13.00;99.90;;;;;;5093791;28;20019;-83
2022/01/02 03:10:43;;;;;;;11.35;5.55;;;13.10;99.90;;;;;;5093625;28;20527;-83
2022/01/02 03:13:09;;;;;;;15.45;5.97;;;13.00;99.90;;;;;;5093416;28;20020;-82
2022/01/02 03:15:34;;;;;;;11.45;5.07;;;13.00;99.90;;;;;;5093604;28;20028;-83
2022/01/02 03:18:00;;;;;;;10.93;5.10;;;13.00;99.90;;;;;;5081065;28;20016;-80
2022/01/02 03:20:26;;;;;;;13.02;5.65;;;13.00;99.90;;;;;;5073205;28;20029;-81
2022/01/02 03:22:52;;;;;;;8.90;4.18;;;13.00;99.90;;;;;;5073107;28;20024;-82
2022/01/02 03:25:17;;;;;;;11.68;4.57;;;13.00;99.90;;;;;;5072675;28;20048;-78
2022/01/02 03:27:44;;;;;;;15.70;5.30;;;13.00;99.90;;;;;;5072101;28;20028;-81
2022/01/02 03:30:14;;;;;;;13.30;4.78;;;13.10;99.90;;;;;;5072335;28;20067;-82
2022/01/02 03:32:40;;;;;;;12.38;4.43;;;13.10;99.90;;;;;;5092306;28;20052;-81
2022/01/02 03:35:07;;;;;;;8.10;5.05;;;13.10;99.90;;;;;;5092947;28;20773;-81
2022/01/02 03:37:33;;;;;;;11.07;4.80;;;13.00;99.90;;;;;;5091880;28;20020;-81
2022/01/02 03:40:06;;;;;;;11.13;4.32;;;13.00;99.90;;;;;;5092534;28;20024;-82
2022/01/02 03:42:32;;;;;;;9.90;4.50;;;13.00;99.90;;;;;;5085938;28;20604;-79
2022/01/02 03:44:58;;;;;;;11.57;4.65;;;13.00;99.90;;;;;;5072567;28;20032;-81
2022/01/02 03:47:25;;;;;;;7.30;4.32;;;13.00;99.90;;;;;;5072497;28;20017;-81
2022/01/02 03:49:50;;;;;;;13.07;4.20;;;13.00;99.90;;;;;;5072656;28;20021;-80
2022/01/02 03:52:16;;;;;;;8.60;4.30;;;13.00;99.90;;;;;;5072574;28;20032;-80
2022/01/02 03:54:42;;;;;;;11.73;4.25;;;13.10;99.90;;;;;;5071101;28;20024;-79
2022/01/02 03:57:08;;;;;;;7.80;3.70;;;13.10;99.90;;;;;;5083583;28;20060;-80
2022/01/02 03:59:33;;;;;;;11.18;4.20;;;12.90;99.90;;;;;;5088354;28;20028;-81
2022/01/02 04:02:00;;;;;;;11.00;4.53;;;13.00;99.90;;;;;;5077184;28;20119;-80
2022/01/02 04:04:27;;;;;;;13.35;4.35;;;12.90;99.90;;;;;;5073019;28;20040;-80
2022/01/02 04:06:52;;;;;;;7.88;3.97;;;13.00;99.90;;;;;;5079867;28;20020;-80
2022/01/02 04:09:18;;;;;;;11.35;3.97;;;13.00;99.90;;;;;;5080103;28;20486;-79
2022/01/02 04:11:44;;;;;;;9.55;4.15;;;13.10;99.90;;;;;;5091296;28;20036;-81
2022/01/02 04:14:09;;;;;;;9.00;3.88;;;13.10;99.90;;;;;;5073807;28;20056;-79
2022/01/02 04:16:35;;;;;;;10.95;3.53;;;13.00;99.90;;;;;;5073091;28;20021;-80
2022/01/02 04:19:01;;;;;;;9.13;3.90;;;13.00;99.90;;;;;;5071729;28;20447;-79
2022/01/02 04:21:26;;;;;;;8.40;3.83;;;13.00;99.90;;;;;;5071844;28;20025;-79
2022/01/02 04:23:52;;;;;;;10.88;3.85;;;13.00;99.90;;;;;;5073791;28;20441;-81
2022/01/02 04:26:18;;;;;;;10.43;3.80;;;13.00;99.90;;;;;;5081235;28;20499;-81
2022/01/02 04:28:44;;;;;;;12.25;4.15;;;13.00;99.90;;;;;;5093195;28;20126;-82
2022/01/02 04:31:10;;;;;;;8.60;4.00;;;12.90;99.90;;;;;;5077943;28;20400;-82
2022/01/02 04:33:36;;;;;;;7.88;3.65;;;13.00;99.90;;;;;;5073058;28;20016;-82
2022/01/02 04:36:03;;;;;;;9.13;4.35;;;13.00;99.90;;;;;;5090804;28;20054;-82
2022/01/02 04:38:29;;;;;;;14.32;3.95;;;13.00;99.90;;;;;;5093017;28;20035;-81
2022/01/02 04:40:55;;;;;;;10.50;3.45;;;13.00;99.90;;;;;;5092360;28;20476;-82
2022/01/02 04:43:20;;;;;;;6.38;3.58;;;13.10;99.90;;;;;;5091375;28;20026;-82
2022/01/02 04:45:46;;;;;;;9.18;4.07;;;13.10;99.90;;;;;;5092724;28;20095;-82
2022/01/02 04:48:12;;;;;;;8.60;3.25;;;13.10;99.90;;;;;;5092807;28;20480;-82
2022/01/02 04:50:37;;;;;;;5.72;3.33;;;13.10;99.90;;;;;;5092200;28;20040;-82
2022/01/02 04:53:03;;;;;;;10.02;3.97;;;13.10;99.90;;;;;;5092840;28;20473;-82
2022/01/02 04:55:29;;;;;;;10.73;3.70;;;13.10;99.90;;;;;;5087613;28;20039;-82
2022/01/02 04:57:54;;;;;;;7.85;3.47;;;13.10;99.90;;;;;;5093080;28;20031;-82
2022/01/02 05:00:20;;;;;;;10.30;3.80;;;13.10;99.90;;;;;;5094896;28;20024;-81
2022/01/02 05:02:49;;;;;;;6.60;3.38;;;13.20;99.90;;;;;;5076821;28;20547;-82
2022/01/02 05:05:15;;;;;;;9.25;4.25;;;13.10;99.90;;;;;;5076516;28;20028;-82
2022/01/02 05:07:41;;;;;;;7.75;3.35;;;13.20;99.90;;;;;;5078167;28;20024;-82
2022/01/02 05:10:07;;;;;;;9.13;3.22;;;13.20;99.90;;;;;;5075885;28;20049;-82
2022/01/02 05:12:34;;;;;;;8.55;3.95;;;13.10;99.90;;;;;;5076197;28;20483;-81
2022/01/02 05:15:00;;;;;;;10.25;3.80;;;13.10;99.90;;;;;;5075679;28;20017;-82
2022/01/02 05:17:26;;;;;;;12.45;3.90;;;13.00;99.90;;;;;;5076200;28;20016;-82
2022/01/02 05:19:52;;;;;;;9.35;3.53;;;13.00;99.90;;;;;;5075065;28;20066;-82
2022/01/02 05:22:17;;;;;;;9.88;4.00;;;13.10;99.90;;;;;;5075860;28;20489;-82
2022/01/02 05:24:43;;;;;;;10.50;3.67;;;13.10;99.90;;;;;;5079895;28;20446;-82
2022/01/02 05:27:09;;;;;;;7.72;3.05;;;13.00;99.90;;;;;;5096397;28;20018;-81
2022/01/02 05:29:35;;;;;;;8.40;3.80;;;13.00;99.90;;;;;;5096536;28;20024;-81
2022/01/02 05:32:00;;;;;;;12.32;4.10;;;13.10;99.90;;;;;;5083196;28;20075;-82
2022/01/02 05:34:26;;;;;;;6.03;3.67;;;13.10;99.90;;;;;;5076109;28;20078;-83
2022/01/02 05:36:52;;;;;;;6.55;3.38;;;13.00;99.90;;;;;;5079427;28;20055;-82
2022/01/02 05:39:19;;;;;;;10.30;4.00;;;13.10;99.90;;;;;;5084213;28;20020;-82
2022/01/02 05:41:49;;;;;;;7.10;3.70;;;13.10;99.90;;;;;;5083298;28;20045;-82
2022/01/02 05:44:16;;;;;;;6.90;3.65;;;13.10;99.90;;;;;;5085435;28;20016;-82
2022/01/02 05:46:43;;;;;;;7.82;4.25;;;13.10;99.90;;;;;;5084820;28;20433;-81
2022/01/02 05:49:09;;;;;;;10.48;3.80;;;13.00;99.90;;;;;;5081313;28;20023;-81
2022/01/02 05:51:35;;;;;;;9.23;4.15;;;13.00;99.90;;;;;;5070438;28;20067;-80
2022/01/02 05:54:02;;;;;;;9.60;3.80;;;13.00;99.90;;;;;;5085910;28;20437;-81
2022/01/02 05:56:28;;;;;;;9.15;3.55;;;13.00;99.90;;;;;;5089506;28;20362;-81
2022/01/02 05:58:53;;;;;;;12.38;3.88;;;13.10;99.90;;;;;;5095562;28;20081;-81
2022/01/02 06:01:19;;;;;;;9.10;3.47;;;13.00;99.90;;;;;;5093983;28;20074;-81
2022/01/02 06:03:45;;;;;;;8.95;3.83;;;13.00;99.90;;;;;;5094972;28;20522;-81
2022/01/02 06:06:10;;;;;;;5.78;3.65;;;13.00;99.90;;;;;;5094724;28;20024;-81
2022/01/02 06:08:37;;;;;;;8.63;4.40;;;12.90;99.90;;;;;;5095133;28;20128;-81
2022/01/02 06:11:02;;;;;;;9.38;3.83;;;13.00;99.90;;;;;;5094044;28;20452;-81
2022/01/02 06:13:28;;;;;;;11.07;3.97;;;12.80;99.90;;;;;;5094955;28;20027;-82
2022/01/02 06:15:54;;;;;;;8.35;3.42;;;12.70;99.90;;;;;;5094604;28;20039;-82
2022/01/02 06:18:20;;;;;;;5.82;3.30;;;12.70;99.90;;;;;;5090720;28;20032;-82
2022/01/02 06:20:46;;;;;;;8.30;3.72;;;12.70;99.90;;;;;;5080714;28;20065;-83
2022/01/02 06:23:11;;;;;;;9.90;7.57;;;12.80;99.90;;;;;;5094598;28;20028;-83
2022/01/02 06:25:37;;;;;;;8.63;3.80;;;12.90;99.90;;;;;;5094609;28;20107;-82
2022/01/02 06:28:03;;;;;;;8.35;4.78;;;12.90;99.90;;;;;;5093686;28;20453;-82
2022/01/02 06:30:29;;;;;;;7.22;3.20;;;12.90;99.90;;;;;;5093323;28;20385;-83
2022/01/02 06:32:55;;;;;;;7.20;3.38;;;12.80;99.90;;;;;;5093172;28;20047;-83
2022/01/02 06:35:30;;;;;;;6.38;3.20;;;12.80;99.90;;;;;;5094530;28;20073;-84
2022/01/02 06:37:56;;;;;;;8.95;3.45;;;12.80;99.90;;;;;;5094451;28;20020;-84
2022/01/02 06:40:23;;;;;;;10.80;3.78;;;12.80;99.90;;;;;;5094549;28;20024;-84
2022/01/02 06:42:49;;;;;;;5.72;3.25;;;12.80;99.90;;;;;;5093689;28;20024;-83
2022/01/02 06:45:15;;;;;;;6.18;3.30;;;12.80;99.90;;;;;;5094675;28;20069;-83
2022/01/02 06:47:41;;;;;;;10.10;3.17;;;12.70;99.90;;;;;;5088224;28;20435;-84
2022/01/02 06:50:08;;;;;;;6.53;3.20;;;12.70;99.90;;;;;;5077416;28;20046;-84
2022/01/02 06:52:34;;;;;;;12.93;3.83;;;12.80;99.90;;;;;;5087672;28;20035;-84
2022/01/02 06:54:59;;;;;;;7.05;3.65;;;12.80;99.90;;;;;;5086384;28;20024;-83
2022/01/02 06:57:25;;;;;;;8.18;3.30;;;12.80;99.90;;;;;;5093548;28;20529;-84
2022/01/02 06:59:51;;;;;;;5.95;2.70;;;12.80;99.90;;;;;;5093069;28;20020;-84
2022/01/02 07:02:18;;;;;;;12.90;9.10;;;12.80;99.90;;;;;;5092778;28;20036;-84
2022/01/02 07:04:43;;;;;;;4.13;2.45;;;12.80;99.90;;;;;;5093531;28;20028;-83
2022/01/02 07:07:09;;;;;;;7.38;2.80;;;12.80;99.90;;;;;;5093853;28;20488;-84
2022/01/02 07:09:35;;;;;;;7.28;2.95;;;12.70;99.90;;;;;;5093320;28;20016;-83
2022/01/02 07:12:01;;;;;;;5.85;2.95;;;12.80;99.90;;;;;;5083861;28;20652;-84
2022/01/02 07:14:27;;;;;;;3.20;2.45;;;12.70;99.90;;;;;;5088194;28;20476;-84
2022/01/02 07:16:57;;;;;;;7.22;2.30;;;12.70;99.90;;;;;;5093806;28;20028;-83
2022/01/02 07:19:23;;;;;;;7.75;2.88;;;12.80;99.90;;;;;;5091299;28;20016;-84
2022/01/02 07:21:50;;;;;;;6.32;2.50;;;12.80;99.90;;;;;;5095646;28;20490;-84
2022/01/02 07:24:16;;;;;;;7.38;3.30;;;12.90;99.90;;;;;;5092286;28;20062;-84
2022/01/02 07:26:42;;;;;;;5.72;3.25;;;12.80;99.90;;;;;;5092381;28;20059;-84
2022/01/02 07:29:09;;;;;;;5.95;3.22;;;12.90;99.90;;;;;;5094138;28;20016;-83
2022/01/02 07:31:34;;;;;;;5.40;2.97;;;12.90;99.90;;;;;;5093181;28;20039;-83
2022/01/02 07:34:00;;;;;;;5.38;2.63;;;13.00;99.90;;;;;;5093201;28;20016;-84
2022/01/02 07:36:25;;;;;;;7.30;2.50;;;12.90;99.90;;;;;;5093648;28;20059;-83
2022/01/02 07:38:51;;;;;;;2.95;2.53;;;13.00;99.90;;;;;;5093061;28;20456;-82
2022/01/02 07:41:18;;;;;;;3.90;2.85;;;12.90;99.90;;;;;;5086123;28;20066;-82
2022/01/02 07:43:44;;;;;;;3.92;2.50;;;13.00;99.90;;;;;;5081887;28;20099;-83
2022/01/02 07:46:09;;;;;;;4.63;2.40;;;13.00;99.90;;;;;;5077724;28;20121;-84
2022/01/02 07:48:35;;;;;;;5.32;2.40;;;13.10;99.90;;;;;;5080466;28;20050;-84
2022/01/02 07:51:01;;;;;;;4.80;3.22;;;13.10;99.90;;;;;;5082145;28;20620;-84
2022/01/02 07:53:26;;;;;;;5.80;4.22;;;13.10;99.90;;;;;;5091335;28;20032;-84
2022/01/02 07:55:52;;;;;;;3.88;1.90;;;13.00;99.90;;;;;;5081952;28;20488;-84
2022/01/02 07:58:18;;;;;;;4.43;2.30;;;13.10;99.90;;;;;;5078430;28;20097;-79
2022/01/02 08:00:44;;;;;;;5.30;2.20;;;13.00;99.90;;;;;;5082362;28;20421;-81
2022/01/02 08:03:09;;;;;;;3.10;2.13;;;13.00;99.90;;;;;;5086652;28;20483;-80
2022/01/02 08:05:35;;;;;;;5.45;2.50;;;13.10;99.90;;;;;;5080851;28;20036;-80
2022/01/02 08:08:01;;;;;;;3.08;2.15;;;13.00;99.90;;;;;;5076255;28;20028;-80
2022/01/02 08:10:27;;;;;;;7.75;2.25;;;13.10;99.90;;;;;;5088862;28;20484;-80
2022/01/02 08:12:53;;;;;;;9.07;2.63;;;13.10;99.90;;;;;;5084120;28;20077;-78
2022/01/02 08:15:19;;;;;;;5.70;3.05;;;13.10;99.90;;;;;;5087173;28;20020;-80
2022/01/02 08:17:45;;;;;;;2.50;2.30;;;13.10;99.90;;;;;;5075335;28;20524;-80
2022/01/02 08:20:11;;;;;;;4.72;2.28;;;13.10;99.90;;;;;;5082824;28;20043;-80
2022/01/02 08:22:36;;;;;;;5.45;2.47;;;13.10;99.90;;;;;;5083923;28;20024;-79
2022/01/02 08:25:03;;;;;;;3.58;1.73;;;13.10;99.90;;;;;;5082149;28;20047;-79
2022/01/02 08:27:31;;;;;;;5.20;2.53;;;13.00;99.90;;;;;;5086284;28;20016;-79
2022/01/02 08:29:56;;;;;;;2.38;1.83;;;13.00;99.90;;;;;;5076917;28;20077;-80
2022/01/02 08:32:22;;;;;;;3.35;1.90;;;13.10;99.90;;;;;;5085937;28;20388;-80
2022/01/02 08:34:48;;;;;;;6.85;2.13;;;13.10;99.90;;;;;;5075169;28;20028;-79
2022/01/02 08:37:15;;;;;;;2.63;1.92;;;13.10;99.90;;;;;;5077087;28;20418;-81
2022/01/02 08:39:45;;;;;;;4.47;2.13;;;13.10;99.90;;;;;;5082837;28;20044;-80
2022/01/02 08:42:12;;;;;;;4.95;2.63;;;13.10;99.90;;;;;;5084887;28;20031;-80
2022/01/02 08:44:39;;;;;;;2.00;1.80;;;13.10;99.90;;;;;;5087853;28;20036;-80
2022/01/02 08:47:05;;;;;;;2.40;2.05;;;13.10;99.90;;;;;;5090484;28;20020;-80
2022/01/02 08:49:31;;;;;;;2.58;1.92;;;13.10;99.90;;;;;;5087717;28;20078;-80
2022/01/02 08:51:57;;;;;;;4.53;2.50;;;13.10;99.90;;;;;;5079031;28;20032;-80
2022/01/02 08:54:22;;;;;;;2.38;1.92;;;13.10;99.90;;;;;;5085016;28;20035;-80
2022/01/02 08:56:49;;;;;;;4.07;2.17;;;13.20;99.90;;;;;;5090680;28;20473;-82
2022/01/02 08:59:15;;;;;;;3.63;2.15;;;13.10;99.90;;;;;;5091696;28;20479;-82
2022/01/02 09:01:41;;;;;;;4.05;2.13;;;13.20;99.90;;;;;;5090636;28;20052;-82
2022/01/02 09:04:07;;;;;;;4.93;2.22;;;13.20;99.90;;;;;;5091153;28;20035;-83
2022/01/02 09:06:33;;;;;;;5.45;2.17;;;13.20;99.90;;;;;;5090878;28;20483;-81
2022/01/02 09:08:58;;;;;;;3.33;2.10;;;13.30;99.90;;;;;;5091527;28;20024;-81
2022/01/02 09:11:24;;;;;;;5.40;2.30;;;13.20;99.90;;;;;;5088804;28;20403;-79
2022/01/02 09:13:50;;;;;;;3.45;2.38;;;13.30;99.90;;;;;;5090846;28;20028;-80
2022/01/02 09:16:16;;;;;;;5.95;3.08;;;13.30;99.90;;;;;;5090644;28;20135;-80
2022/01/02 09:18:42;;;;;;;3.78;2.78;;;13.40;99.90;;;;;;5092118;28;20090;-80
2022/01/02 09:21:07;;;;;;;5.32;2.67;;;13.30;99.90;;;;;;5077656;28;20028;-81
2022/01/02 09:23:33;;;;;;;3.70;2.42;;;13.30;99.90;;;;;;5090662;28;20372;-80
2022/01/02 09:25:59;;;;;;;5.97;2.58;;;13.30;99.90;;;;;;5081145;28;20032;-81
2022/01/02 09:28:24;;;;;;;4.43;2.75;;;13.30;99.90;;;;;;5092065;28;20020;-81
2022/01/02 09:30:50;;;;;;;5.65;3.00;;;13.30;99.90;;;;;;5090194;28;20036;-82
2022/01/02 09:33:16;;;;;;;5.88;2.40;;;13.40;99.90;;;;;;5091249;28;20023;-82
2022/01/02 09:35:42;;;;;;;4.72;2.65;;;13.30;99.90;;;;;;5091422;28;20028;-81
2022/01/02 09:38:09;;;;;;;5.35;3.20;;;13.40;99.90;;;;;;5083392;28;20028;-81
2022/01/02 09:40:36;;;;;;;5.25;2.50;;;13.40;99.90;;;;;;5085050;28;20099;-82
2022/01/02 09:43:03;;;;;;;4.88;2.50;;;13.40;99.90;;;;;;5087319;28;20042;-81
2022/01/02 09:45:31;;;;;;;4.65;2.83;;;13.40;99.90;;;;;;5092400;28;20066;-82
2022/01/02 09:47:58;;;;;;;4.13;2.60;;;13.40;99.90;;;;;;5093948;28;20032;-81
2022/01/02 09:50:24;;;;;;;7.47;3.22;;;13.50;99.90;;;;;;5082873;28;20354;-82
2022/01/02 09:52:50;;;;;;;6.28;2.78;;;13.60;99.90;;;;;;5092156;28;20038;-82
2022/01/02 09:55:16;;;;;;;5.97;3.20;;;13.60;99.90;;;;;;5094654;28;20012;-83
2022/01/02 09:57:43;;;;;;;5.25;3.17;;;13.60;99.90;;;;;;5087050;28;20490;-84
2022/01/02 10:00:09;;;;;;;4.55;3.30;;;13.60;99.90;;;;;;5094688;28;20044;-83
2022/01/02 10:03:08;;;;;;;8.80;3.83;;;13.60;99.90;;;;;;5089887;28;20032;-84
2022/01/02 10:05:56;;;;;;;5.60;3.65;;;13.60;99.90;;;;;;5038821;28;20040;-83
2022/01/02 10:08:27;;;;;;;8.13;3.92;;;13.70;99.90;;;;;;5106646;28;20093;-82
2022/01/02 10:11:12;;;;;;;5.78;3.42;;;13.80;99.90;;;;;;5086341;28;20028;-84
2022/01/02 10:13:50;;;;;;;10.10;4.22;;;13.70;99.90;;;;;;5085858;28;20107;-80
2022/01/02 10:16:31;;;;;;;6.75;3.50;;;13.70;99.90;;;;;;5087268;28;20032;-82
2022/01/02 10:18:58;;;;;;;9.02;4.22;;;13.70;99.90;;;;;;5085121;28;20491;-80
2022/01/02 10:21:30;;;;;;;8.10;4.13;;;13.70;99.90;;;;;;5085090;28;20051;-84
2022/01/02 10:24:21;;;;;;;7.55;4.40;;;13.80;99.90;;;;;;5090880;28;20016;-81
2022/01/02 10:27:18;;;;;;;7.68;3.65;;;13.80;99.90;;;;;;5076803;28;20024;-80
2022/01/02 10:29:51;;;;;;;6.78;3.90;;;13.80;99.90;;;;;;5090885;28;20078;-83
2022/01/02 10:32:23;;;;;;;9.27;4.43;;;13.80;99.90;;;;;;5091942;28;20566;-82
2022/01/02 10:34:50;;;;;;;7.37;3.90;;;13.80;99.90;;;;;;5078948;28;20058;-80
2022/01/02 10:37:26;;;;;;;9.48;4.20;;;13.90;99.90;;;;;;5086669;28;20027;-82
2022/01/02 10:39:52;;;;;;;8.88;3.50;;;14.00;99.90;;;;;;5088788;28;20035;-81
2022/01/02 10:42:20;;;;;;;9.30;3.78;;;14.00;99.90;;;;;;5093598;28;20028;-79
2022/01/02 10:44:46;;;;;;;12.13;3.72;;;14.00;99.90;;;;;;5091984;28;20060;-81
2022/01/02 10:47:17;;;;;;;8.00;4.13;;;13.90;99.90;;;;;;5092999;28;20024;-79
2022/01/02 10:50:03;;;;;;;12.95;4.63;;;13.90;99.90;;;;;;5088660;28;20063;-80
2022/01/02 10:52:38;;;;;;;10.23;4.43;;;13.90;99.90;;;;;;5082676;28;20036;-81
2022/01/02 10:55:22;;;;;;;9.95;4.10;;;13.90;99.90;;;;;;5083477;28;20491;-80
2022/01/02 10:57:50;;;;;;;8.93;3.97;;;13.90;99.90;;;;;;5080675;28;20500;-82
2022/01/02 11:00:17;;;;;;;8.15;3.60;;;13.90;99.90;;;;;;5086030;28;20510;-81
2022/01/02 11:02:44;;;;;;;6.88;3.40;;;14.00;99.90;;;;;;5089495;28;20107;-80
2022/01/02 11:05:16;;;;;;;12.40;3.30;;;13.90;99.90;;;;;;5083215;28;20418;-80
2022/01/02 11:07:44;;;;;;;9.35;3.88;;;14.00;99.90;;;;;;5080274;28;20033;-82
2022/01/02 11:10:11;;;;;;;8.45;3.33;;;14.10;99.90;;;;;;5079355;28;20032;-82
2022/01/02 11:12:38;;;;;;;10.20;3.50;;;14.10;99.90;;;;;;5083217;28;20477;-81
2022/01/02 11:15:10;;;;;;;7.63;4.75;;;14.10;99.90;;;;;;5082614;28;20020;-80
2022/01/02 11:17:37;;;;;;;6.38;3.65;;;14.20;99.90;;;;;;5079997;28;20020;-81
2022/01/02 11:20:31;;;;;;;11.63;3.60;;;14.10;99.90;;;;;;5082950;28;20024;-82
2022/01/02 11:23:17;;;;;;;9.20;3.55;;;14.10;99.90;;;;;;5081471;28;20036;-82
2022/01/02 11:26:01;;;;;;;9.77;3.75;;;14.10;99.90;;;;;;5084013;28;20099;-82
2022/01/02 11:28:36;;;;;;;8.98;3.60;;;14.20;99.90;;;;;;5079868;28;20021;-82
2022/01/02 11:31:04;;;;;;;10.00;3.97;;;14.20;99.90;;;;;;5081954;28;20139;-81
2022/01/02 11:33:39;;;;;;;7.32;3.47;;;14.30;99.90;;;;;;5083190;28;20028;-81
2022/01/02 11:36:28;;;;;;;9.10;3.45;;;14.40;99.90;;;;;;5083420;28;20093;-81
2022/01/02 11:39:05;;;;;;;7.03;2.65;;;14.40;99.90;;;;;;5084684;28;20349;-81
2022/01/02 11:41:40;;;;;;;7.35;2.97;;;14.40;99.90;;;;;;5084216;28;20016;-82
2022/01/02 11:44:08;;;;;;;6.43;3.00;;;14.40;99.90;;;;;;5081306;28;20078;-88
2022/01/02 11:46:55;;;;;;;7.63;3.63;;;14.20;99.90;;;;;;5083688;28;20465;-89
2022/01/02 11:49:37;;;;;;;7.53;3.05;;;14.30;99.90;;;;;;5081742;28;20020;-86
2022/01/02 11:52:04;;;;;;;8.18;3.05;;;14.30;99.90;;;;;;5082906;28;20036;-83
2022/01/02 11:54:31;;;;;;;7.43;2.85;;;14.20;99.90;;;;;;5083132;28;20016;-85
2022/01/02 11:57:00;;;;;;;8.43;3.47;;;14.20;99.90;;;;;;5085227;28;20049;-85
2022/01/02 11:59:38;;;;;;;5.13;2.75;;;14.30;99.90;;;;;;5083466;28;20047;-86
2022/01/02 12:02:10;;;;;;;6.53;2.60;;;14.30;99.90;;;;;;5084383;28;20384;-80
2022/01/02 12:04:58;;;;;;;6.90;2.67;;;14.30;99.90;;;;;;5089051;28;20499;-79
2022/01/02 12:07:45;;;;;;;7.38;2.85;;;14.30;99.90;;;;;;5083061;28;20028;-78
2022/01/02 12:10:16;;;;;;;5.53;2.92;;;14.30;99.90;;;;;;5078613;28;20125;-79
2022/01/02 12:13:05;;;;;;;7.28;3.10;;;14.30;99.90;;;;;;5075437;28;20123;-81
2022/01/02 12:15:31;;;;;;;8.50;2.35;;;14.40;99.90;;;;;;5078168;28;20016;-80
2022/01/02 12:18:25;;;;;;;3.95;2.47;;;14.40;99.90;;;;;;5081989;28;20039;-78
2022/01/02 12:20:51;;;;;;;9.85;2.90;;;14.50;99.90;;;;;;5082384;28;20036;-78
2022/01/02 12:23:35;;;;;;;4.90;2.60;;;14.60;99.90;;;;;;5080571;28;20016;-78
2022/01/02 12:26:07;;;;;;;5.68;3.00;;;14.50;99.90;;;;;;5078710;28;20021;-81
2022/01/02 12:28:59;;;;;;;7.40;2.47;;;14.50;99.90;;;;;;5081965;28;20044;-83
2022/01/02 12:31:40;;;;;;;7.95;2.65;;;14.60;99.90;;;;;;5082506;28;20040;-83
2022/01/02 12:34:14;;;;;;;10.77;3.00;;;14.60;99.90;;;;;;5080115;28;20029;-83
2022/01/02 12:36:42;;;;;;;6.15;3.13;;;14.50;99.90;;;;;;5077808;28;20452;-83
2022/01/02 12:39:23;;;;;;;8.82;3.33;;;14.50;99.90;;;;;;5083519;28;20038;-82
2022/01/02 12:41:51;;;;;;;4.88;2.67;;;14.50;99.90;;;;;;5078795;28;20020;-82
2022/01/02 12:44:29;;;;;;;7.85;3.53;;;14.60;99.90;;;;;;5088083;28;20032;-82
2022/01/02 12:46:58;;;;;;;6.30;3.20;;;14.50;99.90;;;;;;5082098;28;20032;-81
2022/01/02 12:49:30;;;;;;;7.07;3.05;;;14.50;99.90;;;;;;5087735;28;20125;-83
2022/01/02 12:51:58;;;;;;;4.68;2.60;;;14.50;99.90;;;;;;5083205;28;20036;-80
2022/01/02 12:54:29;;;;;;;8.93;3.30;;;14.60;99.90;;;;;;5080238;28;20031;-80
2022/01/02 12:57:17;;;;;;;9.82;2.95;;;14.60;99.90;;;;;;5085018;28;20032;-80
2022/01/02 12:59:47;;;;;;;7.53;3.28;;;14.60;99.90;;;;;;5082908;28;20043;-81
2022/01/02 13:02:19;;;;;;;7.70;2.92;;;14.60;99.90;;;;;;5090369;28;20040;-82